sensor_id;sensor_type;location;lat;lon;timestamp;temperature;humidity
29849;DHT22;16728;50.832;5.590;2023-07-24T00:02:03;19.40;99.90
29849;DHT22;16728;50.832;5.590;2023-07-24T00:05:06;19.40;99.90
29849;DHT22;16728;50.832;5.590;2023-07-24T00:08:07;19.40;99.90
29849;DHT22;16728;50.832;5.590;2023-07-24T00:11:09;19.30;99.90
29849;DHT22;16728;50.832;5.590;2023-07-24T00:14:11;19.30;99.90
29849;DHT22;16728;50.832;5.590;2023-07-24T00:17:13;19.30;99.90
29849;DHT22;16728;50.832;5.590;2023-07-24T00:20:15;19.30;99.90
29849;DHT22;16728;50.832;5.590;2023-07-24T00:23:17;19.30;99.90
29849;DHT22;16728;50.832;5.590;2023-07-24T00:26:19;19.30;99.90
29849;DHT22;16728;50.832;5.590;2023-07-24T00:29:21;19.30;99.90
29849;DHT22;16728;50.832;5.590;2023-07-24T00:32:23;19.30;99.90
29849;DHT22;16728;50.832;5.590;2023-07-24T00:35:25;19.30;99.90
29849;DHT22;16728;50.832;5.590;2023-07-24T00:38:28;19.30;99.90
29849;DHT22;16728;50.832;5.590;2023-07-24T00:41:30;19.30;99.90
29849;DHT22;16728;50.832;5.590;2023-07-24T00:44:32;19.30;99.90
29849;DHT22;16728;50.832;5.590;2023-07-24T00:47:34;19.30;99.90
29849;DHT22;16728;50.832;5.590;2023-07-24T00:50:37;19.30;99.90
29849;DHT22;16728;50.832;5.590;2023-07-24T00:53:39;19.40;99.90
29849;DHT22;16728;50.832;5.590;2023-07-24T00:56:41;19.40;99.90
29849;DHT22;16728;50.832;5.590;2023-07-24T00:59:43;19.40;99.90
29849;DHT22;16728;50.832;5.590;2023-07-24T01:02:46;19.40;99.90
29849;DHT22;16728;50.832;5.590;2023-07-24T01:05:49;19.30;99.90
29849;DHT22;16728;50.832;5.590;2023-07-24T01:08:51;19.40;99.90
29849;DHT22;16728;50.832;5.590;2023-07-24T01:12:22;19.40;99.90
29849;DHT22;16728;50.832;5.590;2023-07-24T01:15:32;19.40;99.90
29849;DHT22;16728;50.832;5.590;2023-07-24T01:18:37;19.40;99.90
29849;DHT22;16728;50.832;5.590;2023-07-24T01:25:33;19.50;99.90
29849;DHT22;16728;50.832;5.590;2023-07-24T01:28:38;19.50;99.90
29849;DHT22;16728;50.832;5.590;2023-07-24T01:31:41;19.50;99.90
29849;DHT22;16728;50.832;5.590;2023-07-24T01:34:43;19.50;99.90
29849;DHT22;16728;50.832;5.590;2023-07-24T01:37:46;19.50;99.90
29849;DHT22;16728;50.832;5.590;2023-07-24T01:40:48;19.50;99.90
29849;DHT22;16728;50.832;5.590;2023-07-24T01:43:50;19.40;99.90
29849;DHT22;16728;50.832;5.590;2023-07-24T01:46:52;19.50;99.90
29849;DHT22;16728;50.832;5.590;2023-07-24T01:49:54;19.50;99.90
29849;DHT22;16728;50.832;5.590;2023-07-24T01:52:56;19.50;99.90
29849;DHT22;16728;50.832;5.590;2023-07-24T01:55:58;19.50;99.90
29849;DHT22;16728;50.832;5.590;2023-07-24T01:59:00;19.40;99.90
29849;DHT22;16728;50.832;5.590;2023-07-24T02:02:02;19.40;99.90
29849;DHT22;16728;50.832;5.590;2023-07-24T02:05:05;19.40;99.90
29849;DHT22;16728;50.832;5.590;2023-07-24T02:08:07;19.40;99.90
29849;DHT22;16728;50.832;5.590;2023-07-24T02:11:09;19.30;99.90
29849;DHT22;16728;50.832;5.590;2023-07-24T02:14:12;19.30;99.90
29849;DHT22;16728;50.832;5.590;2023-07-24T02:17:17;19.30;99.90
29849;DHT22;16728;50.832;5.590;2023-07-24T02:20:20;19.30;99.90
29849;DHT22;16728;50.832;5.590;2023-07-24T02:23:22;19.20;99.90
29849;DHT22;16728;50.832;5.590;2023-07-24T02:26:24;19.20;99.90
29849;DHT22;16728;50.832;5.590;2023-07-24T02:29:25;19.20;99.90
29849;DHT22;16728;50.832;5.590;2023-07-24T02:32:27;19.20;99.90
29849;DHT22;16728;50.832;5.590;2023-07-24T02:35:30;19.20;99.90
29849;DHT22;16728;50.832;5.590;2023-07-24T02:38:32;19.20;99.90
29849;DHT22;16728;50.832;5.590;2023-07-24T02:41:34;19.20;99.90
29849;DHT22;16728;50.832;5.590;2023-07-24T02:44:36;19.20;99.90
29849;DHT22;16728;50.832;5.590;2023-07-24T02:47:38;19.20;99.90
29849;DHT22;16728;50.832;5.590;2023-07-24T02:50:40;19.10;99.90
29849;DHT22;16728;50.832;5.590;2023-07-24T02:53:42;19.10;99.90
29849;DHT22;16728;50.832;5.590;2023-07-24T02:56:44;19.10;99.90
29849;DHT22;16728;50.832;5.590;2023-07-24T02:59:46;19.10;99.90
29849;DHT22;16728;50.832;5.590;2023-07-24T03:02:48;19.10;99.90
29849;DHT22;16728;50.832;5.590;2023-07-24T03:05:50;19.10;99.90
29849;DHT22;16728;50.832;5.590;2023-07-24T03:08:52;19.10;99.90
29849;DHT22;16728;50.832;5.590;2023-07-24T03:11:54;19.10;99.90
29849;DHT22;16728;50.832;5.590;2023-07-24T03:14:56;19.10;99.90
29849;DHT22;16728;50.832;5.590;2023-07-24T03:17:58;19.00;99.90
29849;DHT22;16728;50.832;5.590;2023-07-24T03:21:00;19.00;99.90
29849;DHT22;16728;50.832;5.590;2023-07-24T03:24:02;19.00;99.90
29849;DHT22;16728;50.832;5.590;2023-07-24T03:27:04;19.00;99.90
29849;DHT22;16728;50.832;5.590;2023-07-24T03:30:07;19.00;99.90
29849;DHT22;16728;50.832;5.590;2023-07-24T03:33:09;18.90;99.90
29849;DHT22;16728;50.832;5.590;2023-07-24T03:36:11;19.00;99.90
29849;DHT22;16728;50.832;5.590;2023-07-24T03:39:13;19.00;99.90
29849;DHT22;16728;50.832;5.590;2023-07-24T03:42:25;19.00;99.90
29849;DHT22;16728;50.832;5.590;2023-07-24T03:45:28;18.90;99.90
29849;DHT22;16728;50.832;5.590;2023-07-24T03:48:29;18.90;99.90
29849;DHT22;16728;50.832;5.590;2023-07-24T03:51:31;18.90;99.90
29849;DHT22;16728;50.832;5.590;2023-07-24T03:54:35;18.90;99.90
29849;DHT22;16728;50.832;5.590;2023-07-24T03:57:37;18.90;99.90
29849;DHT22;16728;50.832;5.590;2023-07-24T04:00:38;18.90;99.90
29849;DHT22;16728;50.832;5.590;2023-07-24T04:03:40;18.90;99.90
29849;DHT22;16728;50.832;5.590;2023-07-24T04:06:42;18.90;99.90
29849;DHT22;16728;50.832;5.590;2023-07-24T04:09:45;18.90;99.90
29849;DHT22;16728;50.832;5.590;2023-07-24T04:12:46;18.90;99.90
29849;DHT22;16728;50.832;5.590;2023-07-24T04:15:48;18.90;99.90
29849;DHT22;16728;50.832;5.590;2023-07-24T04:18:50;18.90;99.90
29849;DHT22;16728;50.832;5.590;2023-07-24T04:21:53;18.90;99.90
29849;DHT22;16728;50.832;5.590;2023-07-24T04:24:55;18.90;99.90
29849;DHT22;16728;50.832;5.590;2023-07-24T04:27:56;18.90;99.90
29849;DHT22;16728;50.832;5.590;2023-07-24T04:31:01;18.90;99.90
29849;DHT22;16728;50.832;5.590;2023-07-24T04:34:03;18.90;99.90
29849;DHT22;16728;50.832;5.590;2023-07-24T04:37:05;18.80;99.90
29849;DHT22;16728;50.832;5.590;2023-07-24T04:40:08;18.90;99.90
29849;DHT22;16728;50.832;5.590;2023-07-24T04:43:10;18.90;99.90
29849;DHT22;16728;50.832;5.590;2023-07-24T04:46:12;18.90;99.90
29849;DHT22;16728;50.832;5.590;2023-07-24T04:49:13;18.90;99.90
29849;DHT22;16728;50.832;5.590;2023-07-24T04:52:15;18.90;99.90
29849;DHT22;16728;50.832;5.590;2023-07-24T04:55:17;18.90;99.90
29849;DHT22;16728;50.832;5.590;2023-07-24T04:58:19;18.90;99.90
29849;DHT22;16728;50.832;5.590;2023-07-24T05:01:21;18.90;99.90
29849;DHT22;16728;50.832;5.590;2023-07-24T05:04:23;18.90;99.90
29849;DHT22;16728;50.832;5.590;2023-07-24T05:07:25;18.90;99.90
29849;DHT22;16728;50.832;5.590;2023-07-24T05:10:27;18.90;99.90
29849;DHT22;16728;50.832;5.590;2023-07-24T05:13:29;18.90;99.90
29849;DHT22;16728;50.832;5.590;2023-07-24T05:16:31;18.90;99.90
29849;DHT22;16728;50.832;5.590;2023-07-24T05:19:34;18.90;99.90
29849;DHT22;16728;50.832;5.590;2023-07-24T05:22:36;18.90;99.90
29849;DHT22;16728;50.832;5.590;2023-07-24T05:25:38;19.00;99.90
29849;DHT22;16728;50.832;5.590;2023-07-24T05:28:40;19.00;99.90
29849;DHT22;16728;50.832;5.590;2023-07-24T05:31:43;19.00;99.90
29849;DHT22;16728;50.832;5.590;2023-07-24T05:34:44;19.10;99.90
29849;DHT22;16728;50.832;5.590;2023-07-24T05:37:47;19.10;99.90
29849;DHT22;16728;50.832;5.590;2023-07-24T05:40:57;19.10;99.90
29849;DHT22;16728;50.832;5.590;2023-07-24T05:43:59;19.20;99.90
29849;DHT22;16728;50.832;5.590;2023-07-24T05:47:01;19.20;99.90
29849;DHT22;16728;50.832;5.590;2023-07-24T05:50:03;19.20;99.90
29849;DHT22;16728;50.832;5.590;2023-07-24T05:53:05;19.20;99.90
29849;DHT22;16728;50.832;5.590;2023-07-24T05:56:07;19.20;99.90
29849;DHT22;16728;50.832;5.590;2023-07-24T05:59:09;19.30;99.90
29849;DHT22;16728;50.832;5.590;2023-07-24T06:02:11;19.30;99.90
29849;DHT22;16728;50.832;5.590;2023-07-24T06:05:13;19.30;99.90
29849;DHT22;16728;50.832;5.590;2023-07-24T06:08:15;19.30;99.90
29849;DHT22;16728;50.832;5.590;2023-07-24T06:11:17;19.30;99.90
29849;DHT22;16728;50.832;5.590;2023-07-24T06:14:19;19.40;99.90
29849;DHT22;16728;50.832;5.590;2023-07-24T06:17:21;19.40;99.90
29849;DHT22;16728;50.832;5.590;2023-07-24T06:20:23;19.40;99.90
29849;DHT22;16728;50.832;5.590;2023-07-24T06:23:25;19.30;99.90
29849;DHT22;16728;50.832;5.590;2023-07-24T06:26:27;19.30;99.90
29849;DHT22;16728;50.832;5.590;2023-07-24T06:29:29;19.30;99.90
29849;DHT22;16728;50.832;5.590;2023-07-24T06:32:31;19.30;99.90
29849;DHT22;16728;50.832;5.590;2023-07-24T06:35:33;19.40;99.90
29849;DHT22;16728;50.832;5.590;2023-07-24T06:38:35;19.40;99.90
29849;DHT22;16728;50.832;5.590;2023-07-24T06:41:37;19.40;99.90
29849;DHT22;16728;50.832;5.590;2023-07-24T06:44:39;19.40;99.90
29849;DHT22;16728;50.832;5.590;2023-07-24T06:47:41;19.50;99.90
29849;DHT22;16728;50.832;5.590;2023-07-24T06:50:43;19.50;99.90
29849;DHT22;16728;50.832;5.590;2023-07-24T06:53:45;19.60;99.90
29849;DHT22;16728;50.832;5.590;2023-07-24T06:56:47;19.60;99.90
29849;DHT22;16728;50.832;5.590;2023-07-24T06:59:49;19.60;99.90
29849;DHT22;16728;50.832;5.590;2023-07-24T07:02:54;19.70;99.90
29849;DHT22;16728;50.832;5.590;2023-07-24T07:05:59;19.60;99.90
29849;DHT22;16728;50.832;5.590;2023-07-24T07:09:01;19.60;99.90
29849;DHT22;16728;50.832;5.590;2023-07-24T07:12:03;19.60;99.90
29849;DHT22;16728;50.832;5.590;2023-07-24T07:15:06;19.50;99.90
29849;DHT22;16728;50.832;5.590;2023-07-24T07:18:08;19.60;99.90
29849;DHT22;16728;50.832;5.590;2023-07-24T07:21:11;19.60;99.90
29849;DHT22;16728;50.832;5.590;2023-07-24T07:24:13;19.60;99.90
29849;DHT22;16728;50.832;5.590;2023-07-24T07:27:15;19.60;99.90
29849;DHT22;16728;50.832;5.590;2023-07-24T07:30:19;19.60;99.90
29849;DHT22;16728;50.832;5.590;2023-07-24T07:33:21;19.60;99.90
29849;DHT22;16728;50.832;5.590;2023-07-24T07:36:23;19.70;99.90
29849;DHT22;16728;50.832;5.590;2023-07-24T07:39:25;19.80;99.90
29849;DHT22;16728;50.832;5.590;2023-07-24T07:42:27;19.90;99.90
29849;DHT22;16728;50.832;5.590;2023-07-24T07:45:29;19.90;99.90
29849;DHT22;16728;50.832;5.590;2023-07-24T07:48:31;20.00;99.90
29849;DHT22;16728;50.832;5.590;2023-07-24T07:51:34;20.00;99.90
29849;DHT22;16728;50.832;5.590;2023-07-24T07:54:36;20.00;99.90
29849;DHT22;16728;50.832;5.590;2023-07-24T07:57:38;20.10;99.90
29849;DHT22;16728;50.832;5.590;2023-07-24T08:00:40;20.10;99.90
29849;DHT22;16728;50.832;5.590;2023-07-24T08:03:42;20.10;99.90
29849;DHT22;16728;50.832;5.590;2023-07-24T08:06:46;20.10;99.90
29849;DHT22;16728;50.832;5.590;2023-07-24T08:09:47;20.20;99.90
29849;DHT22;16728;50.832;5.590;2023-07-24T08:12:49;20.20;99.90
29849;DHT22;16728;50.832;5.590;2023-07-24T08:15:52;20.30;99.90
29849;DHT22;16728;50.832;5.590;2023-07-24T08:18:54;20.30;99.90
29849;DHT22;16728;50.832;5.590;2023-07-24T08:21:59;20.30;99.90
29849;DHT22;16728;50.832;5.590;2023-07-24T08:25:01;20.40;99.90
29849;DHT22;16728;50.832;5.590;2023-07-24T08:28:03;20.30;99.90
29849;DHT22;16728;50.832;5.590;2023-07-24T08:31:07;20.40;99.90
29849;DHT22;16728;50.832;5.590;2023-07-24T08:34:09;20.40;99.90
29849;DHT22;16728;50.832;5.590;2023-07-24T08:37:12;20.40;99.90
29849;DHT22;16728;50.832;5.590;2023-07-24T08:40:15;20.30;99.90
29849;DHT22;16728;50.832;5.590;2023-07-24T08:43:17;20.40;99.90
29849;DHT22;16728;50.832;5.590;2023-07-24T08:46:19;20.40;99.90
29849;DHT22;16728;50.832;5.590;2023-07-24T08:49:22;20.30;99.90
29849;DHT22;16728;50.832;5.590;2023-07-24T08:52:24;20.30;99.90
29849;DHT22;16728;50.832;5.590;2023-07-24T08:55:36;20.40;99.90
29849;DHT22;16728;50.832;5.590;2023-07-24T08:58:41;20.40;99.90
29849;DHT22;16728;50.832;5.590;2023-07-24T09:01:43;20.30;99.90
29849;DHT22;16728;50.832;5.590;2023-07-24T09:04:45;20.40;99.90
29849;DHT22;16728;50.832;5.590;2023-07-24T09:07:48;20.40;99.90
29849;DHT22;16728;50.832;5.590;2023-07-24T09:10:50;20.40;99.90
29849;DHT22;16728;50.832;5.590;2023-07-24T09:13:52;20.40;99.90
29849;DHT22;16728;50.832;5.590;2023-07-24T09:17:22;20.40;99.90
29849;DHT22;16728;50.832;5.590;2023-07-24T09:20:25;20.40;99.90
29849;DHT22;16728;50.832;5.590;2023-07-24T09:23:31;20.40;99.90
29849;DHT22;16728;50.832;5.590;2023-07-24T09:26:33;20.40;99.90
29849;DHT22;16728;50.832;5.590;2023-07-24T09:29:35;20.40;99.90
29849;DHT22;16728;50.832;5.590;2023-07-24T09:32:37;20.40;99.90
29849;DHT22;16728;50.832;5.590;2023-07-24T09:35:39;20.40;99.90
29849;DHT22;16728;50.832;5.590;2023-07-24T09:38:42;20.40;99.90
29849;DHT22;16728;50.832;5.590;2023-07-24T09:41:44;20.40;99.90
29849;DHT22;16728;50.832;5.590;2023-07-24T09:44:50;20.40;99.90
29849;DHT22;16728;50.832;5.590;2023-07-24T09:47:52;20.40;99.90
29849;DHT22;16728;50.832;5.590;2023-07-24T09:51:03;20.40;99.90
29849;DHT22;16728;50.832;5.590;2023-07-24T09:54:26;20.40;99.90
29849;DHT22;16728;50.832;5.590;2023-07-24T09:57:31;20.50;99.90
29849;DHT22;16728;50.832;5.590;2023-07-24T10:00:34;20.40;99.90
29849;DHT22;16728;50.832;5.590;2023-07-24T10:03:39;20.40;99.90
29849;DHT22;16728;50.832;5.590;2023-07-24T10:06:44;20.40;99.90
29849;DHT22;16728;50.832;5.590;2023-07-24T10:09:46;20.30;99.90
29849;DHT22;16728;50.832;5.590;2023-07-24T10:12:49;20.30;99.90
29849;DHT22;16728;50.832;5.590;2023-07-24T10:15:51;20.30;99.90
29849;DHT22;16728;50.832;5.590;2023-07-24T10:18:53;20.20;99.90
29849;DHT22;16728;50.832;5.590;2023-07-24T10:21:55;20.20;99.90
29849;DHT22;16728;50.832;5.590;2023-07-24T10:24:57;20.20;99.90
29849;DHT22;16728;50.832;5.590;2023-07-24T10:28:03;20.20;99.90
29849;DHT22;16728;50.832;5.590;2023-07-24T10:31:25;20.10;99.90
29849;DHT22;16728;50.832;5.590;2023-07-24T10:34:38;20.10;99.90
29849;DHT22;16728;50.832;5.590;2023-07-24T10:37:40;20.20;99.90
29849;DHT22;16728;50.832;5.590;2023-07-24T10:40:46;20.20;99.90
29849;DHT22;16728;50.832;5.590;2023-07-24T10:43:52;19.90;99.90
29849;DHT22;16728;50.832;5.590;2023-07-24T10:46:54;19.70;99.90
29849;DHT22;16728;50.832;5.590;2023-07-24T10:49:57;19.50;99.90
29849;DHT22;16728;50.832;5.590;2023-07-24T10:53:01;19.50;99.90
29849;DHT22;16728;50.832;5.590;2023-07-24T10:56:06;19.60;99.90
29849;DHT22;16728;50.832;5.590;2023-07-24T10:59:08;19.60;99.90
29849;DHT22;16728;50.832;5.590;2023-07-24T11:02:10;19.50;99.90
29849;DHT22;16728;50.832;5.590;2023-07-24T11:05:13;19.40;99.90
29849;DHT22;16728;50.832;5.590;2023-07-24T11:08:17;19.40;99.90
29849;DHT22;16728;50.832;5.590;2023-07-24T11:11:19;19.40;99.90
29849;DHT22;16728;50.832;5.590;2023-07-24T11:14:21;19.50;99.90
29849;DHT22;16728;50.832;5.590;2023-07-24T11:17:36;19.60;99.90
29849;DHT22;16728;50.832;5.590;2023-07-24T11:20:53;19.80;99.90
29849;DHT22;16728;50.832;5.590;2023-07-24T11:23:56;20.00;99.90
29849;DHT22;16728;50.832;5.590;2023-07-24T11:26:58;20.00;99.90
29849;DHT22;16728;50.832;5.590;2023-07-24T11:30:00;20.10;99.90
29849;DHT22;16728;50.832;5.590;2023-07-24T11:33:05;20.10;99.90
29849;DHT22;16728;50.832;5.590;2023-07-24T11:36:08;20.00;99.90
29849;DHT22;16728;50.832;5.590;2023-07-24T11:39:11;19.90;99.90
29849;DHT22;16728;50.832;5.590;2023-07-24T11:42:12;19.70;99.90
29849;DHT22;16728;50.832;5.590;2023-07-24T11:45:15;19.70;99.90
29849;DHT22;16728;50.832;5.590;2023-07-24T11:48:17;19.70;99.90
29849;DHT22;16728;50.832;5.590;2023-07-24T11:51:19;19.60;99.90
29849;DHT22;16728;50.832;5.590;2023-07-24T11:54:21;19.90;99.90
29849;DHT22;16728;50.832;5.590;2023-07-24T11:57:23;20.00;99.90
29849;DHT22;16728;50.832;5.590;2023-07-24T12:00:25;20.00;99.90
29849;DHT22;16728;50.832;5.590;2023-07-24T12:03:28;19.90;99.90
29849;DHT22;16728;50.832;5.590;2023-07-24T12:06:31;19.90;99.90
29849;DHT22;16728;50.832;5.590;2023-07-24T12:09:33;19.90;99.90
29849;DHT22;16728;50.832;5.590;2023-07-24T12:12:46;19.90;99.90
29849;DHT22;16728;50.832;5.590;2023-07-24T12:15:48;19.90;99.90
29849;DHT22;16728;50.832;5.590;2023-07-24T12:18:51;20.00;99.90
29849;DHT22;16728;50.832;5.590;2023-07-24T12:21:53;20.10;99.90
29849;DHT22;16728;50.832;5.590;2023-07-24T12:24:55;20.10;99.90
29849;DHT22;16728;50.832;5.590;2023-07-24T12:27:58;20.10;99.90
29849;DHT22;16728;50.832;5.590;2023-07-24T12:31:00;20.10;99.90
29849;DHT22;16728;50.832;5.590;2023-07-24T12:34:02;20.20;99.90
29849;DHT22;16728;50.832;5.590;2023-07-24T12:37:04;20.20;99.90
29849;DHT22;16728;50.832;5.590;2023-07-24T12:40:06;20.20;99.90
29849;DHT22;16728;50.832;5.590;2023-07-24T12:43:09;20.30;99.90
29849;DHT22;16728;50.832;5.590;2023-07-24T12:46:11;20.30;99.90
29849;DHT22;16728;50.832;5.590;2023-07-24T12:49:13;20.30;99.90
29849;DHT22;16728;50.832;5.590;2023-07-24T12:52:16;20.30;99.90
29849;DHT22;16728;50.832;5.590;2023-07-24T12:55:18;20.30;99.90
29849;DHT22;16728;50.832;5.590;2023-07-24T12:58:20;20.30;99.90
29849;DHT22;16728;50.832;5.590;2023-07-24T13:01:22;20.40;99.90
29849;DHT22;16728;50.832;5.590;2023-07-24T13:04:25;20.40;99.90
29849;DHT22;16728;50.832;5.590;2023-07-24T13:07:27;20.30;99.90
29849;DHT22;16728;50.832;5.590;2023-07-24T13:10:31;20.30;99.90
29849;DHT22;16728;50.832;5.590;2023-07-24T13:13:33;20.30;99.90
29849;DHT22;16728;50.832;5.590;2023-07-24T13:16:35;20.10;99.90
29849;DHT22;16728;50.832;5.590;2023-07-24T13:19:38;20.10;99.90
29849;DHT22;16728;50.832;5.590;2023-07-24T13:22:40;20.00;99.90
29849;DHT22;16728;50.832;5.590;2023-07-24T13:25:42;20.00;99.90
29849;DHT22;16728;50.832;5.590;2023-07-24T13:28:44;20.00;99.90
29849;DHT22;16728;50.832;5.590;2023-07-24T13:31:46;20.00;99.90
29849;DHT22;16728;50.832;5.590;2023-07-24T13:34:48;20.10;99.90
29849;DHT22;16728;50.832;5.590;2023-07-24T13:37:50;20.20;99.90
29849;DHT22;16728;50.832;5.590;2023-07-24T13:40:52;20.40;99.90
29849;DHT22;16728;50.832;5.590;2023-07-24T13:43:54;20.50;99.90
29849;DHT22;16728;50.832;5.590;2023-07-24T13:46:56;20.60;99.90
29849;DHT22;16728;50.832;5.590;2023-07-24T13:49:58;20.70;99.90
29849;DHT22;16728;50.832;5.590;2023-07-24T13:53:01;20.80;99.90
29849;DHT22;16728;50.832;5.590;2023-07-24T13:56:03;20.80;99.90
29849;DHT22;16728;50.832;5.590;2023-07-24T13:59:05;20.90;99.90
29849;DHT22;16728;50.832;5.590;2023-07-24T14:02:08;20.90;99.90
29849;DHT22;16728;50.832;5.590;2023-07-24T14:05:10;20.90;99.90
29849;DHT22;16728;50.832;5.590;2023-07-24T14:08:12;21.00;99.90
29849;DHT22;16728;50.832;5.590;2023-07-24T14:11:14;21.00;99.90
29849;DHT22;16728;50.832;5.590;2023-07-24T14:14:17;21.10;99.90
29849;DHT22;16728;50.832;5.590;2023-07-24T14:17:19;21.10;99.90
29849;DHT22;16728;50.832;5.590;2023-07-24T14:20:22;21.10;99.90
29849;DHT22;16728;50.832;5.590;2023-07-24T14:23:24;21.20;99.90
29849;DHT22;16728;50.832;5.590;2023-07-24T14:26:26;21.30;99.90
29849;DHT22;16728;50.832;5.590;2023-07-24T14:29:28;21.30;99.90
29849;DHT22;16728;50.832;5.590;2023-07-24T14:32:30;21.30;99.90
29849;DHT22;16728;50.832;5.590;2023-07-24T14:35:32;21.30;99.90
29849;DHT22;16728;50.832;5.590;2023-07-24T14:38:34;21.40;99.90
29849;DHT22;16728;50.832;5.590;2023-07-24T14:41:36;21.50;99.90
29849;DHT22;16728;50.832;5.590;2023-07-24T14:44:38;21.50;99.90
29849;DHT22;16728;50.832;5.590;2023-07-24T14:47:40;21.50;99.90
29849;DHT22;16728;50.832;5.590;2023-07-24T14:50:42;21.50;99.90
29849;DHT22;16728;50.832;5.590;2023-07-24T14:53:44;21.50;99.90
29849;DHT22;16728;50.832;5.590;2023-07-24T14:56:46;21.40;99.90
29849;DHT22;16728;50.832;5.590;2023-07-24T14:59:59;21.40;99.90
29849;DHT22;16728;50.832;5.590;2023-07-24T15:03:02;21.40;99.90
29849;DHT22;16728;50.832;5.590;2023-07-24T15:06:04;21.30;99.90
29849;DHT22;16728;50.832;5.590;2023-07-24T15:09:08;21.30;99.90
29849;DHT22;16728;50.832;5.590;2023-07-24T15:12:10;21.30;99.90
29849;DHT22;16728;50.832;5.590;2023-07-24T15:15:12;21.30;99.90
29849;DHT22;16728;50.832;5.590;2023-07-24T15:18:13;21.30;99.90
29849;DHT22;16728;50.832;5.590;2023-07-24T15:21:16;21.30;99.90
29849;DHT22;16728;50.832;5.590;2023-07-24T15:24:18;21.30;99.90
29849;DHT22;16728;50.832;5.590;2023-07-24T15:27:20;21.30;99.90
29849;DHT22;16728;50.832;5.590;2023-07-24T15:30:23;21.20;99.90
29849;DHT22;16728;50.832;5.590;2023-07-24T15:33:25;21.20;99.90
29849;DHT22;16728;50.832;5.590;2023-07-24T15:36:27;21.20;99.90
29849;DHT22;16728;50.832;5.590;2023-07-24T15:39:28;21.20;99.90
29849;DHT22;16728;50.832;5.590;2023-07-24T15:42:30;21.20;99.90
29849;DHT22;16728;50.832;5.590;2023-07-24T15:45:32;21.30;99.90
29849;DHT22;16728;50.832;5.590;2023-07-24T15:48:34;21.30;99.90
29849;DHT22;16728;50.832;5.590;2023-07-24T15:51:36;21.30;99.90
29849;DHT22;16728;50.832;5.590;2023-07-24T15:54:41;21.30;99.90
29849;DHT22;16728;50.832;5.590;2023-07-24T15:57:43;21.30;99.90
29849;DHT22;16728;50.832;5.590;2023-07-24T16:00:45;21.20;99.90
29849;DHT22;16728;50.832;5.590;2023-07-24T16:03:47;21.30;99.90
29849;DHT22;16728;50.832;5.590;2023-07-24T16:06:49;21.20;99.90
29849;DHT22;16728;50.832;5.590;2023-07-24T16:09:51;21.30;99.90
29849;DHT22;16728;50.832;5.590;2023-07-24T16:12:53;21.20;99.90
29849;DHT22;16728;50.832;5.590;2023-07-24T16:15:55;21.20;99.90
29849;DHT22;16728;50.832;5.590;2023-07-24T16:19:15;21.20;99.90
29849;DHT22;16728;50.832;5.590;2023-07-24T16:22:17;20.90;99.90
29849;DHT22;16728;50.832;5.590;2023-07-24T16:25:19;20.70;99.90
29849;DHT22;16728;50.832;5.590;2023-07-24T16:28:22;20.60;99.90
29849;DHT22;16728;50.832;5.590;2023-07-24T16:31:24;20.40;99.90
29849;DHT22;16728;50.832;5.590;2023-07-24T16:34:35;20.30;99.90
29849;DHT22;16728;50.832;5.590;2023-07-24T16:37:40;20.10;99.90
29849;DHT22;16728;50.832;5.590;2023-07-24T16:40:42;20.00;99.90
29849;DHT22;16728;50.832;5.590;2023-07-24T16:43:44;20.00;99.90
29849;DHT22;16728;50.832;5.590;2023-07-24T16:46:47;19.90;99.90
29849;DHT22;16728;50.832;5.590;2023-07-24T16:49:50;19.80;99.90
29849;DHT22;16728;50.832;5.590;2023-07-24T16:52:52;19.70;99.90
29849;DHT22;16728;50.832;5.590;2023-07-24T16:55:54;19.50;99.90
29849;DHT22;16728;50.832;5.590;2023-07-24T16:58:56;19.50;99.90
29849;DHT22;16728;50.832;5.590;2023-07-24T17:01:57;19.40;99.90
29849;DHT22;16728;50.832;5.590;2023-07-24T17:04:59;19.20;99.90
29849;DHT22;16728;50.832;5.590;2023-07-24T17:08:01;19.00;99.90
29849;DHT22;16728;50.832;5.590;2023-07-24T17:11:03;18.90;99.90
29849;DHT22;16728;50.832;5.590;2023-07-24T17:14:05;18.90;99.90
29849;DHT22;16728;50.832;5.590;2023-07-24T17:17:07;18.80;99.90
29849;DHT22;16728;50.832;5.590;2023-07-24T17:20:09;18.80;99.90
29849;DHT22;16728;50.832;5.590;2023-07-24T17:23:11;18.80;99.90
29849;DHT22;16728;50.832;5.590;2023-07-24T17:26:13;18.90;99.90
29849;DHT22;16728;50.832;5.590;2023-07-24T17:29:15;18.80;99.90
29849;DHT22;16728;50.832;5.590;2023-07-24T17:32:18;18.80;99.90
29849;DHT22;16728;50.832;5.590;2023-07-24T17:35:20;18.80;99.90
29849;DHT22;16728;50.832;5.590;2023-07-24T17:38:22;18.70;99.90
29849;DHT22;16728;50.832;5.590;2023-07-24T17:41:24;18.70;99.90
29849;DHT22;16728;50.832;5.590;2023-07-24T17:44:28;18.70;99.90
29849;DHT22;16728;50.832;5.590;2023-07-24T17:47:30;18.60;99.90
29849;DHT22;16728;50.832;5.590;2023-07-24T17:50:32;18.70;99.90
29849;DHT22;16728;50.832;5.590;2023-07-24T17:53:36;18.70;99.90
29849;DHT22;16728;50.832;5.590;2023-07-24T17:56:37;18.70;99.90
29849;DHT22;16728;50.832;5.590;2023-07-24T17:59:40;18.70;99.90
29849;DHT22;16728;50.832;5.590;2023-07-24T18:02:42;18.60;99.90
29849;DHT22;16728;50.832;5.590;2023-07-24T18:05:45;18.60;99.90
29849;DHT22;16728;50.832;5.590;2023-07-24T18:08:47;18.70;99.90
29849;DHT22;16728;50.832;5.590;2023-07-24T18:11:50;18.70;99.90
29849;DHT22;16728;50.832;5.590;2023-07-24T18:14:52;18.70;99.90
29849;DHT22;16728;50.832;5.590;2023-07-24T18:17:56;18.80;99.90
29849;DHT22;16728;50.832;5.590;2023-07-24T18:20:58;18.90;99.90
29849;DHT22;16728;50.832;5.590;2023-07-24T18:24:10;18.80;99.90
29849;DHT22;16728;50.832;5.590;2023-07-24T18:27:12;18.90;99.90
29849;DHT22;16728;50.832;5.590;2023-07-24T18:30:14;19.00;99.90
29849;DHT22;16728;50.832;5.590;2023-07-24T18:33:16;19.00;99.90
29849;DHT22;16728;50.832;5.590;2023-07-24T18:36:18;19.00;99.90
29849;DHT22;16728;50.832;5.590;2023-07-24T18:39:20;19.00;99.90
29849;DHT22;16728;50.832;5.590;2023-07-24T18:42:22;19.00;99.90
29849;DHT22;16728;50.832;5.590;2023-07-24T18:45:24;19.00;99.90
29849;DHT22;16728;50.832;5.590;2023-07-24T18:48:26;19.00;99.90
29849;DHT22;16728;50.832;5.590;2023-07-24T18:51:28;19.00;99.90
29849;DHT22;16728;50.832;5.590;2023-07-24T18:54:30;19.00;99.90
29849;DHT22;16728;50.832;5.590;2023-07-24T18:57:32;19.00;99.90
29849;DHT22;16728;50.832;5.590;2023-07-24T19:00:34;19.00;99.90
29849;DHT22;16728;50.832;5.590;2023-07-24T19:03:36;18.90;99.90
29849;DHT22;16728;50.832;5.590;2023-07-24T19:06:38;18.90;99.90
29849;DHT22;16728;50.832;5.590;2023-07-24T19:09:40;18.90;99.90
29849;DHT22;16728;50.832;5.590;2023-07-24T19:12:42;18.90;99.90
29849;DHT22;16728;50.832;5.590;2023-07-24T19:15:44;18.90;99.90
29849;DHT22;16728;50.832;5.590;2023-07-24T19:18:47;18.90;99.90